Latest Weather Observations for Nerriga

IDN60801

Issued at 11:03 am EST Friday 18 August 2017 (issued every 30 minutes, with the page automatically refreshed every 10 minutes)

About weather observations | Map of weather stations | Latest weather observations for NSW | Other Formats
Station Details ID: 069128 Name: NERRIGA AWS Lat: -35.11 Lon: 150.08 Height: 622.0 m
Data from the previous 72 hours. | See also: Recent months at Nerriga
Date/Time
EST
Temp
°C
App
Temp
°C
Dew
Point
°C
Rel
Hum
%
Delta-T
°C
Wind Press
QNH
hPa
Press
MSL
hPa
Rain since
9am
mm
Dir  Spd
km/h
Gust
km/h
Spd
kts
Gust
kts
18/11:00am 7.7 -3.4 0.2 59 3.1 W 48 74 26 40 1006.8 1007.3 0.0
18/10:30am 7.7 -2.0 0.4 60 3.0 W 41 61 22 33 1007.0 1007.6 0.0
18/10:01am 7.2 -3.0 0.9 64 2.6 WNW 44 63 24 34 1007.4 1008.0 0.0
18/10:00am 7.1 -3.5 0.5 63 2.7 WNW 46 63 25 34 1007.3 1007.9 0.0
18/09:30am 6.8 -2.9 0.7 65 2.5 WNW 41 63 22 34 1007.1 1007.7 0.0
18/09:00am 6.6 -2.7 0.9 67 2.4 WNW 39 57 21 31 1007.1 1007.7 1.2
18/08:30am 5.9 -3.4 0.5 68 2.2 WNW 39 65 21 35 1006.6 1007.2 1.2
18/08:00am 5.3 -4.3 0.9 73 1.8 WNW 41 69 22 37 1006.2 1006.8 1.2
18/07:30am 4.9 -5.1 0.7 74 1.7 WNW 43 61 23 33 1006.1 1006.7 1.2
18/07:00am 4.5 -4.4 0.8 77 1.5 WNW 37 57 20 31 1006.2 1006.8 1.2
18/06:33am 4.8 -3.3 1.1 77 1.5 WNW 33 56 18 30 1006.1 1006.7 1.2
18/06:30am 4.8 -3.1 1.3 78 1.4 WNW 32 43 17 23 1006.2 1006.8 1.2
18/06:00am 4.7 -2.4 1.2 78 1.4 W 28 43 15 23 1006.1 1006.7 1.2
18/05:30am 4.9 -2.6 1.0 76 1.6 W 30 46 16 25 1005.8 1006.4 1.2
18/05:00am 5.0 -2.5 1.3 77 1.5 W 30 56 16 30 1005.6 1006.2 1.2
18/04:49am 5.2 -2.8 1.5 77 1.5 W 33 56 18 30 1005.5 1006.0 1.2
18/04:30am 5.1 -2.7 1.8 79 1.4 WNW 32 50 17 27 1005.4 1005.9 1.2
18/04:09am 5.2 -2.8 1.7 78 1.5 WNW 33 52 18 28 1005.2 1005.7 1.2
18/04:00am 5.4 -3.0 1.7 77 1.5 WNW 35 44 19 24 1005.1 1005.6 1.2
18/03:46am 5.6 -2.8 1.7 76 1.6 WNW 35 54 19 29 1004.8 1005.4 1.2
18/03:30am 5.8 -2.6 1.7 75 1.7 WNW 35 54 19 29 1004.9 1005.5 1.2
18/03:00am 5.8 -2.5 2.1 77 1.6 WNW 35 56 19 30 1005.1 1005.6 1.2
18/02:53am 6.0 -2.3 2.1 76 1.6 WNW 35 56 19 30 1004.9 1005.5 1.2
18/02:30am 5.9 -2.4 2.4 78 1.5 WNW 35 48 19 26 1004.9 1005.5 1.2
18/02:09am 5.8 -2.1 2.4 79 1.4 WNW 33 52 18 28 1005.3 1005.8 1.2
18/02:00am 6.0 -1.7 2.5 78 1.5 WNW 32 48 17 26 1005.4 1005.9 1.2
18/01:38am 5.8 -1.1 2.8 81 1.3 NW 28 48 15 26 1005.7 1006.3 1.2
18/01:30am 5.8 -1.4 2.8 81 1.3 WNW 30 39 16 21 1005.9 1006.5 1.2
18/01:00am 6.2 -0.9 3.4 82 1.2 WNW 30 43 16 23 1006.2 1006.8 1.2
18/12:32am 6.5 -0.6 3.7 82 1.2 WNW 30 50 16 27 1006.8 1007.3 1.2
18/12:30am 6.5 -0.2 3.5 81 1.3 WNW 28 44 15 24 1006.6 1007.2 1.2
18/12:20am 6.3 -0.8 3.6 83 1.2 WNW 30 50 16 27 1006.4 1007.0 1.2
18/12:00am 6.4 -0.3 3.9 84 1.1 WNW 28 41 15 22 1006.8 1007.3 1.2
 
Date/Time
EST
Temp
°C
App
Temp
°C
Dew
Point
°C
Rel
Hum
%
Delta-T
°C
Wind Press
QNH
hPa
Press
MSL
hPa
Rain since
9am
mm
Dir  Spd
km/h
Gust
km/h
Spd
kts
Gust
kts
17/11:30pm 5.5 0.5 3.7 88 0.8 WNW 19 24 10 13 1006.5 1007.1 1.2
17/11:02pm 6.3 -2.4 4.1 86 1.0 WNW 39 59 21 32 1007.0 1007.6 1.0
17/11:00pm 6.3 -2.4 4.1 86 1.0 WNW 39 59 21 32 1007.0 1007.6 1.0
17/10:30pm 5.9 -5.8 3.6 85 1.0 WNW 54 82 29 44 1006.8 1007.3 1.0
17/10:25pm 5.6 -5.1 2.8 82 1.2 W 48 83 26 45 1006.8 1007.3 1.0
17/10:24pm 5.5 -4.3 3.2 85 1.0 W 44 83 24 45 1007.0 1007.6 1.0
17/10:19pm 6.1 -0.6 3.6 84 1.1 W 28 69 15 37 1007.2 1007.8 0.4
17/10:00pm 7.9 2.2 3.0 71 2.2 W 22 32 12 17 1006.5 1007.1 0.0
17/09:47pm 8.0 1.2 3.1 71 2.2 WSW 28 69 15 37 1006.3 1006.9 0.0
17/09:39pm 8.5 -0.4 3.1 69 2.4 W 39 74 21 40 1006.8 1007.3 0.0
17/09:37pm 9.3 0.7 2.6 63 3.0 WNW 37 74 20 40 1006.5 1007.1 0.0
17/09:33pm 10.0 3.0 1.9 57 3.5 WNW 28 48 15 26 1006.6 1007.2 0.0
17/09:30pm 10.0 3.3 1.6 56 3.6 WNW 26 43 14 23 1006.6 1007.2 0.0
17/09:06pm 9.8 1.5 1.9 58 3.4 W 35 56 19 30 1006.3 1006.9 0.0
17/09:00pm 9.5 -0.9 2.1 60 3.2 WNW 46 67 25 36 1006.3 1006.9 0.0
17/08:59pm 9.4 -0.6 2.3 61 3.1 WNW 44 67 24 36 1006.4 1007.0 0.0
17/08:53pm 9.9 0.9 2.3 59 3.3 WNW 39 67 21 36 1006.1 1006.7 0.0
17/08:30pm 10.9 3.3 0.3 48 4.5 WNW 30 54 16 29 1006.0 1006.6 0.0
17/08:11pm 11.2 3.2 0.6 48 4.5 WNW 32 52 17 28 1006.0 1006.6 0.0
17/08:00pm 11.2 4.8 0.9 49 4.5 WNW 24 35 13 19 1006.1 1006.7 0.0
17/07:54pm 11.3 4.1 1.0 49 4.5 WNW 28 54 15 29 1006.2 1006.8 0.0
17/07:30pm 11.2 4.6 2.0 53 4.1 WNW 26 33 14 18 1005.9 1006.5 0.0
17/07:09pm 11.1 3.4 2.2 54 4.0 NW 32 52 17 28 1005.7 1006.3 0.0
17/07:00pm 11.1 2.8 1.9 53 4.1 NW 35 52 19 28 1005.5 1006.0 0.0
17/06:40pm 10.9 2.6 2.0 54 3.9 NW 35 54 19 29 1005.4 1005.9 0.0
17/06:30pm 11.2 2.1 2.0 53 4.1 NW 39 54 21 29 1005.1 1005.6 0.0
17/06:00pm 10.8 3.0 1.9 54 3.9 NW 32 44 17 24 1004.7 1005.3 0.0
17/05:31pm 11.5 1.9 0.9 48 4.6 NW 41 61 22 33 1004.4 1005.0 0.0
17/05:30pm 11.6 1.9 0.7 47 4.7 WNW 41 59 22 32 1004.3 1004.9 0.0
17/05:00pm 12.0 2.4 1.1 47 4.8 WNW 41 67 22 36 1004.2 1004.7 0.0
17/04:34pm 12.6 3.4 1.0 45 5.1 WNW 39 57 21 31 1004.3 1004.9 0.0
17/04:30pm 12.8 3.2 0.9 44 5.2 WNW 41 61 22 33 1004.3 1004.9 0.0
17/04:24pm 13.0 1.2 0.7 43 5.4 WNW 52 83 28 45 1004.3 1004.9 0.0
17/04:19pm 12.8 1.3 0.2 42 5.4 NW 50 83 27 45 1003.8 1004.3 0.0
17/04:18pm 12.8 1.7 -0.1 41 5.5 WNW 48 83 26 45 1003.6 1004.1 0.0
17/04:00pm 12.8 3.2 0.9 44 5.2 WNW 41 65 22 35 1003.8 1004.3 0.0
17/03:30pm 13.1 3.1 1.1 44 5.3 WNW 43 69 23 37 1004.1 1004.6 0.0
17/03:00pm 12.6 1.6 0.7 44 5.2 NW 48 72 26 39 1004.2 1004.7 0.0
17/02:30pm 13.4 1.1 -0.3 39 5.9 NW 54 76 29 41 1004.0 1004.5 0.0
17/02:00pm 13.6 0.3 -0.4 38 6.0 NW 59 87 32 47 1004.1 1004.6 0.0
17/01:48pm 13.5 0.2 -0.5 38 6.0 NW 59 91 32 49 1003.9 1004.4 0.0
17/01:30pm 13.3 2.5 -0.7 38 5.9 NW 46 70 25 38 1004.2 1004.7 0.0
17/01:00pm 13.2 0.6 0.3 41 5.6 WNW 56 83 30 45 1004.8 1005.4 0.0
17/12:48pm 13.3 2.6 0.3 41 5.6 WNW 46 83 25 45 1004.5 1005.1 0.0
17/12:42pm 13.5 2.6 1.5 44 5.4 NW 48 83 26 45 1005.3 1005.8 0.0
17/12:41pm 13.5 2.3 1.8 45 5.3 NW 50 83 27 45 1005.4 1005.9 0.0
17/12:30pm 13.7 1.2 2.3 46 5.2 NW 57 83 31 45 1004.9 1005.5 0.0
17/12:25pm 12.9 0.9 1.6 46 5.0 NW 54 83 29 45 1004.8 1005.4 0.0
17/12:00pm 12.7 2.7 2.3 49 4.7 WNW 44 76 24 41 1005.3 1005.8 0.0
17/11:30am 13.1 3.3 3.2 51 4.6 WNW 44 65 24 35 1006.0 1006.6 0.0
17/11:00am 13.5 3.8 4.1 53 4.5 WNW 44 69 24 37 1006.8 1007.3 0.0
17/10:30am 12.4 3.0 2.6 51 4.4 WNW 41 67 22 36 1006.6 1007.2 0.0
17/10:00am 12.3 3.0 3.0 53 4.3 WNW 41 63 22 34 1007.1 1007.7 0.0
17/09:30am 11.6 3.4 2.9 55 3.9 WNW 35 56 19 30 1007.2 1007.8 0.0
17/09:11am 11.5 3.7 2.8 55 3.9 WNW 33 61 18 33 1007.1 1007.7 0.0
17/09:00am 11.1 2.9 2.9 57 3.7 WNW 35 50 19 27 1007.3 1007.9 0.2
17/08:30am 10.1 2.4 2.5 59 3.4 WNW 32 52 17 28 1007.4 1008.0 0.2
17/08:00am 9.2 1.9 2.5 63 3.0 WNW 30 48 16 26 1007.4 1008.0 0.2
17/07:31am 8.4 0.7 2.2 65 2.7 WNW 32 56 17 30 1006.9 1007.4 0.2
17/07:30am 8.4 1.1 2.2 65 2.7 WNW 30 44 16 24 1007.1 1007.7 0.2
17/07:00am 7.6 -0.3 2.1 68 2.4 WNW 33 65 18 35 1006.9 1007.4 0.2
17/06:30am 7.5 -0.2 2.2 69 2.3 WNW 32 54 17 29 1006.6 1007.2 0.2
17/06:00am 7.3 -0.4 2.2 70 2.2 WNW 32 52 17 28 1006.4 1007.0 0.2
17/05:53am 7.6 0.2 2.1 68 2.4 WNW 30 52 16 28 1006.3 1006.9 0.2
17/05:30am 7.5 0.5 2.2 69 2.3 WNW 28 46 15 25 1006.3 1006.9 0.2
17/05:00am 7.7 0.3 2.0 67 2.5 WNW 30 46 16 25 1006.2 1006.8 0.2
17/04:30am 7.7 0.3 2.0 67 2.4 WNW 30 44 16 24 1006.3 1006.9 0.2
17/04:00am 8.0 1.0 2.0 66 2.6 WNW 28 44 15 24 1006.3 1006.9 0.2
17/03:30am 8.2 0.9 2.2 66 2.6 WNW 30 48 16 26 1006.4 1007.0 0.2
17/03:29am 8.0 0.7 2.3 67 2.5 WNW 30 48 16 26 1006.4 1007.0 0.2
17/03:00am 8.2 0.9 2.4 67 2.5 WNW 30 43 16 23 1006.6 1007.2 0.2
17/02:30am 8.5 1.6 2.3 65 2.7 WNW 28 46 15 25 1006.9 1007.4 0.2
17/02:05am 8.6 1.3 2.4 65 2.7 WNW 30 50 16 27 1006.9 1007.4 0.2
17/02:00am 8.4 1.1 2.4 66 2.6 WNW 30 44 16 24 1007.1 1007.7 0.2
17/01:37am 8.7 1.0 2.5 65 2.7 WNW 32 52 17 28 1007.2 1007.8 0.2
17/01:30am 8.5 0.8 2.3 65 2.7 WNW 32 48 17 26 1007.3 1007.9 0.2
17/01:00am 8.4 1.8 2.2 65 2.7 WNW 26 43 14 23 1007.4 1008.0 0.2
17/12:30am 8.3 2.5 2.3 66 2.6 WNW 22 39 12 21 1007.7 1008.3 0.2
17/12:00am 8.7 1.4 2.5 65 2.7 WNW 30 56 16 30 1007.7 1008.3 0.2
 
Date/Time
EST
Temp
°C
App
Temp
°C
Dew
Point
°C
Rel
Hum
%
Delta-T
°C
Wind Press
QNH
hPa
Press
MSL
hPa
Rain since
9am
mm
Dir  Spd
km/h
Gust
km/h
Spd
kts
Gust
kts
16/11:32pm 8.6 1.8 3.0 68 2.5 WNW 28 50 15 27 1007.9 1008.5 0.2
16/11:30pm 8.7 1.9 3.1 68 2.5 WNW 28 44 15 24 1008.0 1008.6 0.2
16/11:00pm 8.6 0.9 3.2 69 2.4 NW 33 54 18 29 1008.1 1008.7 0.2
16/10:30pm 8.6 1.0 3.0 68 2.5 WNW 32 50 17 27 1008.3 1009.0 0.2
16/10:16pm 8.8 2.1 3.6 70 2.3 WNW 28 59 15 32 1008.0 1008.6 0.2
16/10:00pm 8.6 2.3 3.6 71 2.2 WNW 26 39 14 21 1008.1 1008.7 0.2
16/09:36pm 9.0 1.9 3.6 69 2.4 WNW 30 50 16 27 1007.9 1008.5 0.2
16/09:30pm 8.8 2.8 3.4 69 2.4 WNW 24 35 13 19 1008.1 1008.7 0.2
16/09:00pm 9.0 3.0 3.4 68 2.5 WNW 24 41 13 22 1008.0 1008.6 0.2
16/08:30pm 8.8 3.6 3.6 70 2.3 WNW 20 32 11 17 1008.1 1008.7 0.2
16/08:00pm 8.9 3.0 3.7 70 2.4 WNW 24 35 13 19 1007.8 1008.4 0.2
16/07:30pm 9.0 2.7 3.6 69 2.4 NW 26 37 14 20 1007.5 1008.1 0.2
16/07:00pm 9.4 2.7 3.4 66 2.7 WNW 28 39 15 21 1007.0 1007.6 0.2
16/06:30pm 9.6 2.8 2.9 63 3.0 WNW 28 41 15 22 1006.5 1007.1 0.2
16/06:00pm 9.4 3.3 2.5 62 3.1 WNW 24 39 13 21 1006.1 1006.7 0.2
16/05:30pm 10.1 2.4 2.2 58 3.5 WNW 32 46 17 25 1005.4 1005.9 0.2
16/05:00pm 10.7 1.2 1.5 53 4.0 WNW 41 63 22 34 1004.7 1005.3 0.2
16/04:30pm 11.5 2.8 1.7 51 4.3 WNW 37 61 20 33 1004.2 1004.7 0.2
16/04:00pm 11.8 1.6 0.9 47 4.8 WNW 44 76 24 41 1003.8 1004.3 0.2
16/03:36pm 12.1 2.2 1.4 48 4.7 WNW 43 63 23 34 1003.6 1004.1 0.2
16/03:30pm 12.1 1.5 1.1 47 4.8 WNW 46 61 25 33 1003.1 1003.7 0.2
16/03:00pm 13.0 3.5 1.7 46 5.1 WNW 41 70 22 38 1003.1 1003.7 0.2
16/02:30pm 12.5 2.1 1.8 48 4.8 WNW 46 78 25 42 1002.4 1002.9 0.2
16/02:00pm 12.6 1.5 2.7 51 4.5 WNW 50 83 27 45 1002.0 1002.5 0.2
16/01:30pm 11.6 0.9 2.6 54 4.0 WNW 48 78 26 42 1001.4 1001.9 0.2
16/01:00pm 12.0 1.2 4.2 59 3.7 WNW 50 69 27 37 1000.9 1001.4 0.2
16/12:30pm 11.6 1.2 4.1 60 3.5 WNW 48 69 26 37 1000.8 1001.3 0.2
16/12:03pm 11.3 1.7 4.5 63 3.2 WNW 44 63 24 34 1001.0 1001.5 0.2
16/12:00pm 11.0 1.4 4.5 64 3.1 WNW 44 61 24 33 1001.1 1001.6 0.2
16/11:30am 11.6 2.1 4.1 60 3.5 WNW 43 63 23 34 1001.2 1001.7 0.2
16/11:00am 11.3 1.3 4.1 61 3.4 WNW 46 70 25 38 1000.8 1001.3 0.2
16/10:39am 10.8 0.2 4.9 67 2.8 WNW 50 89 27 48 1000.8 1001.3 0.2
16/10:30am 10.1 0.9 5.3 72 2.3 WNW 43 65 23 35 1000.8 1001.3 0.2
16/10:01am 9.4 0.4 6.5 82 1.4 WNW 43 63 23 34 1001.0 1001.5 0.0
16/10:00am 9.5 0.3 6.4 81 1.5 WNW 44 63 24 34 1000.9 1001.4 0.0
16/09:39am 10.5 1.2 6.1 74 2.1 WNW 44 70 24 38 1000.3 1000.8 0.0
16/09:37am 10.6 1.5 6.0 73 2.2 WNW 43 70 23 38 1000.0 1000.4 0.0
16/09:31am 10.8 3.0 6.7 76 2.0 WNW 37 56 20 30 1000.3 1000.8 0.0
16/09:30am 10.8 3.1 6.9 77 1.9 WNW 37 54 20 29 1000.3 1000.8 0.0
16/09:00am 9.4 2.0 6.8 84 1.3 NW 35 56 19 30 1000.2 1000.7 3.6
16/08:33am 8.9 1.9 6.9 87 1.0 NW 33 54 18 29 1000.0 1000.4 3.6
16/08:30am 8.8 2.1 7.3 90 0.7 NW 32 46 17 25 1000.1 1000.5 3.6
16/08:00am 9.3 3.4 7.7 90 0.8 NW 28 43 15 23 1000.1 1000.5 3.0
16/07:30am 9.5 4.6 8.4 93 0.6 NW 24 33 13 18 1000.3 1000.8 2.6
16/07:00am 9.6 5.1 8.4 92 0.6 NW 22 32 12 17 999.8 1000.3 1.2
16/06:30am 10.3 4.6 8.4 88 1.0 WNW 28 39 15 21 999.6 1000.1 0.8
16/06:12am 10.5 4.9 8.9 90 0.8 WNW 28 48 15 26 999.4 999.9 0.4
16/06:00am 10.5 4.7 9.3 92 0.6 WNW 30 41 16 22 999.5 1000.0 0.4
16/05:30am 11.7 4.0 8.6 81 1.6 WNW 39 57 21 31 998.5 998.9 0.0
16/05:05am 12.4 6.2 7.7 73 2.4 NW 30 48 16 26 997.8 998.3 0.0
16/05:00am 12.6 6.0 7.7 72 2.5 WNW 32 50 17 27 997.9 998.4 0.0
16/04:30am 13.3 7.6 6.6 64 3.3 WNW 26 37 14 20 997.4 997.8 0.0
16/04:00am 14.3 9.0 4.9 53 4.6 NW 22 33 12 18 997.0 997.4 0.0
16/03:30am 14.1 9.2 4.9 54 4.4 NW 20 28 11 15 997.5 998.0 0.0
16/03:00am 11.1 8.9 6.0 71 2.5 WNW 7 15 4 8 998.1 998.6 0.0
16/02:30am 9.1 7.3 5.5 78 1.7 WNW 4 6 2 3 998.6 999.0 0.0
16/02:00am 9.9 8.6 5.9 76 1.9 WNW 2 7 1 4 999.0 999.5 0.0
16/01:30am 8.4 5.7 5.5 82 1.4 WNW 9 11 5 6 1000.0 1000.4 0.0
16/01:00am 8.7 7.6 4.9 77 1.8 CALM 0 7 0 4 1000.4 1000.9 0.0
16/12:30am 10.9 8.8 6.5 74 2.1 WNW 7 11 4 6 1000.7 1001.2 0.0
16/12:00am 10.5 8.2 5.5 71 2.4 WNW 7 9 4 5 1001.7 1002.2 0.0
 
Date/Time
EST
Temp
°C
App
Temp
°C
Dew
Point
°C
Rel
Hum
%
Delta-T
°C
Wind Press
QNH
hPa
Press
MSL
hPa
Rain since
9am
mm
Dir  Spd
km/h
Gust
km/h
Spd
kts
Gust
kts
15/11:30pm 11.5 10.2 5.8 68 2.7 WNW 2 6 1 3 1002.5 1003.0 0.0
15/11:00pm 12.4 11.5 6.2 66 3.1 CALM 0 2 0 1 1003.1 1003.7 0.0
15/10:30pm 12.7 11.0 5.8 63 3.4 WNW 4 7 2 4 1003.6 1004.1 0.0
15/10:00pm 13.8 11.4 5.4 57 4.1 WNW 7 9 4 5 1003.8 1004.3 0.0
15/09:30pm 16.0 11.0 4.4 46 5.6 WNW 20 37 11 20 1004.2 1004.7 0.0
15/09:00pm 16.2 11.3 4.3 45 5.8 WNW 19 26 10 14 1004.7 1005.3 0.0
15/08:30pm 16.1 10.1 5.1 48 5.4 WNW 26 39 14 21 1005.3 1005.8 0.0
15/08:00pm 15.4 10.1 6.7 56 4.4 NW 24 35 13 19 1005.3 1005.8 0.0
15/07:30pm 14.7 10.1 8.0 64 3.5 NW 22 32 12 17 1005.8 1006.4 0.0
15/07:00pm 14.4 10.2 8.4 67 3.1 NW 20 30 11 16 1006.5 1007.1 0.0
15/06:30pm 14.4 9.9 8.4 67 3.1 NW 22 30 12 16 1006.6 1007.2 0.0
15/06:00pm 14.4 10.3 8.6 68 3.0 NW 20 30 11 16 1006.1 1006.7 0.0
15/05:30pm 14.7 9.4 8.4 66 3.3 WNW 26 37 14 20 1006.3 1006.9 0.0
15/05:00pm 15.1 9.1 8.6 65 3.4 WNW 30 39 16 21 1006.5 1007.1 0.0
15/04:30pm 15.2 9.6 8.7 65 3.4 WNW 28 43 15 23 1006.2 1006.8 0.0
15/04:00pm 16.4 11.5 8.6 60 4.1 NW 24 32 13 17 1006.6 1007.2 0.0
15/03:30pm 18.2 12.4 9.3 56 4.8 WNW 30 50 16 27 1006.9 1007.4 0.0
15/03:29pm 18.0 11.7 9.1 56 4.8 WNW 32 50 17 27 1006.9 1007.4 0.0
15/03:00pm 18.4 11.8 8.7 53 5.2 WNW 33 44 18 24 1007.0 1007.6 0.0
15/02:31pm 17.4 8.7 7.7 53 5.1 WNW 43 63 23 34 1006.9 1007.4 0.0
15/02:30pm 17.5 8.6 7.5 52 5.2 WNW 44 63 24 34 1006.9 1007.4 0.0
15/02:21pm 17.4 9.8 7.5 52 5.1 WNW 37 59 20 32 1006.9 1007.4 0.0
15/02:00pm 17.6 10.8 6.8 49 5.6 WNW 32 48 17 26 1007.5 1008.1 0.0
15/01:30pm 17.7 8.5 5.3 44 6.2 NW 43 67 23 36 1007.6 1008.2 0.0
15/01:01pm 17.2 11.0 4.5 43 6.2 NW 26 61 14 33 1007.3 1007.9 0.0
15/01:00pm 17.1 11.8 5.1 45 6.0 NW 22 50 12 27 1007.4 1008.0 0.0
15/12:30pm 15.1 11.0 7.9 62 3.7 NNW 19 24 10 13 1008.9 1009.5 0.0
15/12:00pm 13.6 10.6 7.8 68 3.0 NNW 13 17 7 9 1010.4 1011.0 0.0
15/11:30am 11.9 9.4 6.6 70 2.6 NW 9 13 5 7 1011.7 1012.4 0.0

Other Formats:

Comma delimited format used in spreadsheet applications
http://www.bom.gov.au/fwo/IDN60801/IDN60801.94943.axf

JavaScript Object Notation format (JSON) in row-major order
http://www.bom.gov.au/fwo/IDN60801/IDN60801.94943.json